sensor_id;sensor_type;location;lat;lon;timestamp;temperature;humidity
10263;DHT22;5177;50.068;8.156;2024-02-14T00:01:05;7.80;1.00
10263;DHT22;5177;50.068;8.156;2024-02-14T00:03:34;7.70;1.00
10263;DHT22;5177;50.068;8.156;2024-02-14T00:05:59;7.80;99.90
10263;DHT22;5177;50.068;8.156;2024-02-14T00:08:25;7.70;99.90
10263;DHT22;5177;50.068;8.156;2024-02-14T00:10:50;7.70;99.90
10263;DHT22;5177;50.068;8.156;2024-02-14T00:13:16;7.70;1.00
10263;DHT22;5177;50.068;8.156;2024-02-14T00:15:43;7.80;1.00
10263;DHT22;5177;50.068;8.156;2024-02-14T00:18:09;7.80;1.00
10263;DHT22;5177;50.068;8.156;2024-02-14T00:20:35;7.90;1.00
10263;DHT22;5177;50.068;8.156;2024-02-14T00:23:01;7.90;1.00
10263;DHT22;5177;50.068;8.156;2024-02-14T00:25:27;7.90;1.00
10263;DHT22;5177;50.068;8.156;2024-02-14T00:27:52;7.90;1.00
10263;DHT22;5177;50.068;8.156;2024-02-14T00:30:19;7.90;1.00
10263;DHT22;5177;50.068;8.156;2024-02-14T00:32:45;7.90;1.00
10263;DHT22;5177;50.068;8.156;2024-02-14T00:35:10;7.90;1.00
10263;DHT22;5177;50.068;8.156;2024-02-14T00:37:36;7.90;1.00
10263;DHT22;5177;50.068;8.156;2024-02-14T00:40:01;7.90;1.00
10263;DHT22;5177;50.068;8.156;2024-02-14T00:42:27;7.90;1.00
10263;DHT22;5177;50.068;8.156;2024-02-14T00:44:53;7.90;1.00
10263;DHT22;5177;50.068;8.156;2024-02-14T00:47:18;8.00;1.00
10263;DHT22;5177;50.068;8.156;2024-02-14T00:49:43;8.00;1.00
10263;DHT22;5177;50.068;8.156;2024-02-14T00:52:09;8.10;1.00
10263;DHT22;5177;50.068;8.156;2024-02-14T00:54:34;8.00;1.00
10263;DHT22;5177;50.068;8.156;2024-02-14T00:57:00;8.00;1.00
10263;DHT22;5177;50.068;8.156;2024-02-14T00:59:25;8.00;1.00
10263;DHT22;5177;50.068;8.156;2024-02-14T01:01:51;8.00;1.00
10263;DHT22;5177;50.068;8.156;2024-02-14T01:04:17;7.90;1.00
10263;DHT22;5177;50.068;8.156;2024-02-14T01:06:42;7.90;1.00
10263;DHT22;5177;50.068;8.156;2024-02-14T01:09:07;8.00;1.00
10263;DHT22;5177;50.068;8.156;2024-02-14T01:11:34;8.00;1.00
10263;DHT22;5177;50.068;8.156;2024-02-14T01:13:59;8.00;1.00
10263;DHT22;5177;50.068;8.156;2024-02-14T01:16:25;8.00;1.00
10263;DHT22;5177;50.068;8.156;2024-02-14T01:18:51;7.90;1.00
10263;DHT22;5177;50.068;8.156;2024-02-14T01:21:16;8.00;1.00
10263;DHT22;5177;50.068;8.156;2024-02-14T01:23:42;7.90;1.00
10263;DHT22;5177;50.068;8.156;2024-02-14T01:26:07;8.00;1.00
10263;DHT22;5177;50.068;8.156;2024-02-14T01:28:33;7.90;1.00
10263;DHT22;5177;50.068;8.156;2024-02-14T01:30:59;7.90;1.00
10263;DHT22;5177;50.068;8.156;2024-02-14T01:33:24;7.90;1.00
10263;DHT22;5177;50.068;8.156;2024-02-14T01:35:49;7.90;1.00
10263;DHT22;5177;50.068;8.156;2024-02-14T01:41:18;7.90;1.00
10263;DHT22;5177;50.068;8.156;2024-02-14T01:43:44;7.90;1.00
10263;DHT22;5177;50.068;8.156;2024-02-14T01:46:10;7.90;1.00
10263;DHT22;5177;50.068;8.156;2024-02-14T01:48:36;8.00;1.00
10263;DHT22;5177;50.068;8.156;2024-02-14T01:51:02;8.00;1.00
10263;DHT22;5177;50.068;8.156;2024-02-14T01:53:28;7.90;1.00
10263;DHT22;5177;50.068;8.156;2024-02-14T01:55:55;7.90;1.00
10263;DHT22;5177;50.068;8.156;2024-02-14T01:58:21;7.80;1.00
10263;DHT22;5177;50.068;8.156;2024-02-14T02:00:47;7.80;1.00
10263;DHT22;5177;50.068;8.156;2024-02-14T02:03:13;7.70;1.00
10263;DHT22;5177;50.068;8.156;2024-02-14T02:05:38;7.70;1.00
10263;DHT22;5177;50.068;8.156;2024-02-14T02:08:04;7.70;12.60
10263;DHT22;5177;50.068;8.156;2024-02-14T02:10:29;7.70;28.40
10263;DHT22;5177;50.068;8.156;2024-02-14T02:12:58;7.70;45.80
10263;DHT22;5177;50.068;8.156;2024-02-14T02:15:25;7.60;82.30
10263;DHT22;5177;50.068;8.156;2024-02-14T02:17:52;7.60;68.60
10263;DHT22;5177;50.068;8.156;2024-02-14T02:20:18;7.60;99.90
10263;DHT22;5177;50.068;8.156;2024-02-14T02:22:46;7.60;99.90
10263;DHT22;5177;50.068;8.156;2024-02-14T02:25:12;7.60;96.80
10263;DHT22;5177;50.068;8.156;2024-02-14T02:27:37;7.60;99.90
10263;DHT22;5177;50.068;8.156;2024-02-14T02:30:06;7.60;99.90
10263;DHT22;5177;50.068;8.156;2024-02-14T02:32:33;7.70;99.90
10263;DHT22;5177;50.068;8.156;2024-02-14T02:34:59;7.70;99.00
10263;DHT22;5177;50.068;8.156;2024-02-14T02:37:25;7.70;99.90
10263;DHT22;5177;50.068;8.156;2024-02-14T02:39:51;7.70;99.90
10263;DHT22;5177;50.068;8.156;2024-02-14T02:42:17;7.80;99.90
10263;DHT22;5177;50.068;8.156;2024-02-14T02:44:46;7.80;81.40
10263;DHT22;5177;50.068;8.156;2024-02-14T02:47:11;7.80;97.20
10263;DHT22;5177;50.068;8.156;2024-02-14T02:49:38;7.80;80.50
10263;DHT22;5177;50.068;8.156;2024-02-14T02:52:03;7.80;87.10
10263;DHT22;5177;50.068;8.156;2024-02-14T02:54:29;7.70;98.30
10263;DHT22;5177;50.068;8.156;2024-02-14T02:56:54;7.70;99.90
10263;DHT22;5177;50.068;8.156;2024-02-14T02:59:20;7.70;99.90
10263;DHT22;5177;50.068;8.156;2024-02-14T03:01:45;7.70;99.90
10263;DHT22;5177;50.068;8.156;2024-02-14T03:04:11;7.80;99.90
10263;DHT22;5177;50.068;8.156;2024-02-14T03:06:38;7.80;99.90
10263;DHT22;5177;50.068;8.156;2024-02-14T03:09:04;7.70;99.90
10263;DHT22;5177;50.068;8.156;2024-02-14T03:11:31;7.70;99.90
10263;DHT22;5177;50.068;8.156;2024-02-14T03:13:56;7.60;99.90
10263;DHT22;5177;50.068;8.156;2024-02-14T03:16:22;7.70;99.90
10263;DHT22;5177;50.068;8.156;2024-02-14T03:18:50;7.70;99.90
10263;DHT22;5177;50.068;8.156;2024-02-14T03:21:15;7.70;99.90
10263;DHT22;5177;50.068;8.156;2024-02-14T03:23:40;7.70;99.90
10263;DHT22;5177;50.068;8.156;2024-02-14T03:26:06;7.70;99.90
10263;DHT22;5177;50.068;8.156;2024-02-14T03:28:33;7.70;99.90
10263;DHT22;5177;50.068;8.156;2024-02-14T03:30:59;7.70;99.90
10263;DHT22;5177;50.068;8.156;2024-02-14T03:33:24;7.70;99.90
10263;DHT22;5177;50.068;8.156;2024-02-14T03:35:50;7.70;99.90
10263;DHT22;5177;50.068;8.156;2024-02-14T03:41:12;7.60;99.90
10263;DHT22;5177;50.068;8.156;2024-02-14T03:43:38;7.70;99.90
10263;DHT22;5177;50.068;8.156;2024-02-14T03:46:04;7.70;99.90
10263;DHT22;5177;50.068;8.156;2024-02-14T03:48:30;7.60;99.90
10263;DHT22;5177;50.068;8.156;2024-02-14T03:50:56;7.60;99.90
10263;DHT22;5177;50.068;8.156;2024-02-14T03:53:22;7.60;99.90
10263;DHT22;5177;50.068;8.156;2024-02-14T03:55:48;7.60;99.90
10263;DHT22;5177;50.068;8.156;2024-02-14T03:58:14;7.60;99.90
10263;DHT22;5177;50.068;8.156;2024-02-14T04:00:42;7.50;99.90
10263;DHT22;5177;50.068;8.156;2024-02-14T04:03:12;7.50;99.90
10263;DHT22;5177;50.068;8.156;2024-02-14T04:05:37;7.50;1.00
10263;DHT22;5177;50.068;8.156;2024-02-14T04:08:03;7.50;99.90
10263;DHT22;5177;50.068;8.156;2024-02-14T04:10:28;7.50;99.90
10263;DHT22;5177;50.068;8.156;2024-02-14T04:12:54;7.50;1.00
10263;DHT22;5177;50.068;8.156;2024-02-14T04:15:20;7.40;1.00
10263;DHT22;5177;50.068;8.156;2024-02-14T04:17:45;7.40;1.00
10263;DHT22;5177;50.068;8.156;2024-02-14T04:20:11;7.40;1.00
10263;DHT22;5177;50.068;8.156;2024-02-14T04:22:36;7.40;1.00
10263;DHT22;5177;50.068;8.156;2024-02-14T04:25:02;7.40;1.00
10263;DHT22;5177;50.068;8.156;2024-02-14T04:27:27;7.40;1.00
10263;DHT22;5177;50.068;8.156;2024-02-14T04:29:53;7.40;1.00
10263;DHT22;5177;50.068;8.156;2024-02-14T04:32:19;7.40;1.00
10263;DHT22;5177;50.068;8.156;2024-02-14T04:34:45;7.40;1.00
10263;DHT22;5177;50.068;8.156;2024-02-14T04:37:10;7.50;1.00
10263;DHT22;5177;50.068;8.156;2024-02-14T04:39:41;7.50;1.00
10263;DHT22;5177;50.068;8.156;2024-02-14T04:42:07;7.50;1.00
10263;DHT22;5177;50.068;8.156;2024-02-14T04:44:33;7.40;1.00
10263;DHT22;5177;50.068;8.156;2024-02-14T04:46:59;7.40;1.00
10263;DHT22;5177;50.068;8.156;2024-02-14T04:49:25;7.40;99.90
10263;DHT22;5177;50.068;8.156;2024-02-14T04:51:51;7.40;1.00
10263;DHT22;5177;50.068;8.156;2024-02-14T04:54:16;7.50;8.00
10263;DHT22;5177;50.068;8.156;2024-02-14T04:56:42;7.50;87.90
10263;DHT22;5177;50.068;8.156;2024-02-14T04:59:16;7.50;96.90
10263;DHT22;5177;50.068;8.156;2024-02-14T05:01:42;7.50;99.90
10263;DHT22;5177;50.068;8.156;2024-02-14T05:04:07;7.60;1.00
10263;DHT22;5177;50.068;8.156;2024-02-14T05:06:33;7.60;1.00
10263;DHT22;5177;50.068;8.156;2024-02-14T05:08:59;7.60;4.90
10263;DHT22;5177;50.068;8.156;2024-02-14T05:11:24;7.70;1.00
10263;DHT22;5177;50.068;8.156;2024-02-14T05:13:50;7.60;54.40
10263;DHT22;5177;50.068;8.156;2024-02-14T05:16:19;7.60;31.60
10263;DHT22;5177;50.068;8.156;2024-02-14T05:18:44;7.50;99.90
10263;DHT22;5177;50.068;8.156;2024-02-14T05:21:10;7.50;99.90
10263;DHT22;5177;50.068;8.156;2024-02-14T05:23:36;7.40;99.90
10263;DHT22;5177;50.068;8.156;2024-02-14T05:26:02;7.40;99.90
10263;DHT22;5177;50.068;8.156;2024-02-14T05:28:28;7.40;99.90
10263;DHT22;5177;50.068;8.156;2024-02-14T05:30:54;7.40;99.90
10263;DHT22;5177;50.068;8.156;2024-02-14T05:33:19;7.30;1.00
10263;DHT22;5177;50.068;8.156;2024-02-14T05:35:48;7.30;99.90
10263;DHT22;5177;50.068;8.156;2024-02-14T05:38:13;7.40;99.90
10263;DHT22;5177;50.068;8.156;2024-02-14T05:40:45;7.40;99.90
10263;DHT22;5177;50.068;8.156;2024-02-14T05:43:11;7.40;1.00
10263;DHT22;5177;50.068;8.156;2024-02-14T05:51:42;7.50;99.90
10263;DHT22;5177;50.068;8.156;2024-02-14T05:54:07;7.50;1.00
10263;DHT22;5177;50.068;8.156;2024-02-14T05:56:33;7.60;99.90
10263;DHT22;5177;50.068;8.156;2024-02-14T05:58:58;7.70;99.90
10263;DHT22;5177;50.068;8.156;2024-02-14T06:01:24;7.80;99.90
10263;DHT22;5177;50.068;8.156;2024-02-14T06:03:49;7.90;99.90
10263;DHT22;5177;50.068;8.156;2024-02-14T06:06:15;8.00;99.90
10263;DHT22;5177;50.068;8.156;2024-02-14T06:08:40;8.10;99.90
10263;DHT22;5177;50.068;8.156;2024-02-14T06:11:06;8.20;99.90
10263;DHT22;5177;50.068;8.156;2024-02-14T06:13:31;8.30;99.90
10263;DHT22;5177;50.068;8.156;2024-02-14T06:15:57;8.30;1.00
10263;DHT22;5177;50.068;8.156;2024-02-14T06:18:22;8.40;18.30
10263;DHT22;5177;50.068;8.156;2024-02-14T06:20:49;8.50;1.00
10263;DHT22;5177;50.068;8.156;2024-02-14T06:23:15;8.50;1.00
10263;DHT22;5177;50.068;8.156;2024-02-14T06:25:40;8.50;1.00
10263;DHT22;5177;50.068;8.156;2024-02-14T06:28:06;8.60;1.00
10263;DHT22;5177;50.068;8.156;2024-02-14T06:30:31;8.60;1.00
10263;DHT22;5177;50.068;8.156;2024-02-14T06:32:57;8.60;1.00
10263;DHT22;5177;50.068;8.156;2024-02-14T06:35:26;8.60;1.00
10263;DHT22;5177;50.068;8.156;2024-02-14T06:37:51;8.60;1.00
10263;DHT22;5177;50.068;8.156;2024-02-14T06:40:17;8.70;1.00
10263;DHT22;5177;50.068;8.156;2024-02-14T06:42:43;8.70;1.00
10263;DHT22;5177;50.068;8.156;2024-02-14T06:45:08;8.70;1.00
10263;DHT22;5177;50.068;8.156;2024-02-14T06:47:34;8.70;1.00
10263;DHT22;5177;50.068;8.156;2024-02-14T06:49:59;8.70;1.00
10263;DHT22;5177;50.068;8.156;2024-02-14T06:52:26;8.70;1.00
10263;DHT22;5177;50.068;8.156;2024-02-14T06:54:51;8.70;1.00
10263;DHT22;5177;50.068;8.156;2024-02-14T06:57:17;8.70;1.00
10263;DHT22;5177;50.068;8.156;2024-02-14T06:59:43;8.70;1.00
10263;DHT22;5177;50.068;8.156;2024-02-14T07:02:08;8.70;1.00
10263;DHT22;5177;50.068;8.156;2024-02-14T07:04:34;8.70;1.00
10263;DHT22;5177;50.068;8.156;2024-02-14T07:06:59;8.70;1.00
10263;DHT22;5177;50.068;8.156;2024-02-14T07:09:26;8.70;1.00
10263;DHT22;5177;50.068;8.156;2024-02-14T07:11:51;8.70;1.00
10263;DHT22;5177;50.068;8.156;2024-02-14T07:14:19;8.70;9.40
10263;DHT22;5177;50.068;8.156;2024-02-14T07:16:44;8.70;90.10
10263;DHT22;5177;50.068;8.156;2024-02-14T07:19:10;8.70;31.40
10263;DHT22;5177;50.068;8.156;2024-02-14T07:21:35;8.70;99.90
10263;DHT22;5177;50.068;8.156;2024-02-14T07:24:03;8.70;99.90
10263;DHT22;5177;50.068;8.156;2024-02-14T07:26:29;8.70;99.90
10263;DHT22;5177;50.068;8.156;2024-02-14T07:28:55;8.80;99.90
10263;DHT22;5177;50.068;8.156;2024-02-14T07:31:20;8.80;99.90
10263;DHT22;5177;50.068;8.156;2024-02-14T07:33:45;8.80;99.90
10263;DHT22;5177;50.068;8.156;2024-02-14T07:36:13;8.80;99.90
10263;DHT22;5177;50.068;8.156;2024-02-14T07:38:38;8.80;99.90
10263;DHT22;5177;50.068;8.156;2024-02-14T07:41:04;8.80;99.90
10263;DHT22;5177;50.068;8.156;2024-02-14T07:43:29;8.80;99.90
10263;DHT22;5177;50.068;8.156;2024-02-14T07:45:55;8.80;99.90
10263;DHT22;5177;50.068;8.156;2024-02-14T07:48:20;8.90;99.90
10263;DHT22;5177;50.068;8.156;2024-02-14T07:50:47;8.90;99.90
10263;DHT22;5177;50.068;8.156;2024-02-14T07:53:13;8.90;99.90
10263;DHT22;5177;50.068;8.156;2024-02-14T07:55:39;8.90;99.90
10263;DHT22;5177;50.068;8.156;2024-02-14T07:58:05;9.00;99.90
10263;DHT22;5177;50.068;8.156;2024-02-14T08:00:30;8.90;99.90
10263;DHT22;5177;50.068;8.156;2024-02-14T08:02:56;9.00;99.90
10263;DHT22;5177;50.068;8.156;2024-02-14T08:05:21;9.00;99.90
10263;DHT22;5177;50.068;8.156;2024-02-14T08:07:47;9.00;99.90
10263;DHT22;5177;50.068;8.156;2024-02-14T08:10:13;9.10;99.90
10263;DHT22;5177;50.068;8.156;2024-02-14T08:12:38;9.00;99.90
10263;DHT22;5177;50.068;8.156;2024-02-14T08:15:04;9.10;99.90
10263;DHT22;5177;50.068;8.156;2024-02-14T08:17:32;9.10;99.90
10263;DHT22;5177;50.068;8.156;2024-02-14T08:19:58;9.10;99.90
10263;DHT22;5177;50.068;8.156;2024-02-14T08:22:24;9.10;99.90
10263;DHT22;5177;50.068;8.156;2024-02-14T08:24:49;9.10;99.90
10263;DHT22;5177;50.068;8.156;2024-02-14T08:27:15;9.10;99.90
10263;DHT22;5177;50.068;8.156;2024-02-14T08:29:40;9.20;99.90
10263;DHT22;5177;50.068;8.156;2024-02-14T08:32:06;9.10;99.90
10263;DHT22;5177;50.068;8.156;2024-02-14T08:34:31;9.10;1.00
10263;DHT22;5177;50.068;8.156;2024-02-14T08:36:57;9.10;1.00
10263;DHT22;5177;50.068;8.156;2024-02-14T08:39:22;9.10;1.00
10263;DHT22;5177;50.068;8.156;2024-02-14T08:41:48;9.20;1.00
10263;DHT22;5177;50.068;8.156;2024-02-14T08:44:13;9.20;1.00
10263;DHT22;5177;50.068;8.156;2024-02-14T08:46:39;9.20;4.00
10263;DHT22;5177;50.068;8.156;2024-02-14T08:49:07;9.20;99.90
10263;DHT22;5177;50.068;8.156;2024-02-14T08:51:37;9.20;13.10
10263;DHT22;5177;50.068;8.156;2024-02-14T08:54:06;9.20;1.00
10263;DHT22;5177;50.068;8.156;2024-02-14T08:56:32;9.20;99.90
10263;DHT22;5177;50.068;8.156;2024-02-14T08:59:01;9.20;99.90
10263;DHT22;5177;50.068;8.156;2024-02-14T09:01:28;9.30;99.90
10263;DHT22;5177;50.068;8.156;2024-02-14T09:03:53;9.30;14.00
10263;DHT22;5177;50.068;8.156;2024-02-14T09:06:19;9.30;13.90
10263;DHT22;5177;50.068;8.156;2024-02-14T09:08:44;9.30;74.20
10263;DHT22;5177;50.068;8.156;2024-02-14T09:11:10;9.40;1.00
10263;DHT22;5177;50.068;8.156;2024-02-14T09:13:37;9.40;1.00
10263;DHT22;5177;50.068;8.156;2024-02-14T09:16:03;9.40;1.00
10263;DHT22;5177;50.068;8.156;2024-02-14T09:18:28;9.40;1.00
10263;DHT22;5177;50.068;8.156;2024-02-14T09:20:57;9.40;99.90
10263;DHT22;5177;50.068;8.156;2024-02-14T09:23:22;9.50;1.00
10263;DHT22;5177;50.068;8.156;2024-02-14T09:25:48;9.50;1.00
10263;DHT22;5177;50.068;8.156;2024-02-14T09:28:15;9.40;99.90
10263;DHT22;5177;50.068;8.156;2024-02-14T09:30:41;9.50;99.90
10263;DHT22;5177;50.068;8.156;2024-02-14T09:33:07;9.60;91.60
10263;DHT22;5177;50.068;8.156;2024-02-14T09:35:32;9.60;59.10
10263;DHT22;5177;50.068;8.156;2024-02-14T09:37:58;9.70;1.00
10263;DHT22;5177;50.068;8.156;2024-02-14T09:40:24;9.70;1.00
10263;DHT22;5177;50.068;8.156;2024-02-14T09:42:54;9.80;1.00
10263;DHT22;5177;50.068;8.156;2024-02-14T09:45:22;10.00;1.00
10263;DHT22;5177;50.068;8.156;2024-02-14T09:47:49;10.10;99.90
10263;DHT22;5177;50.068;8.156;2024-02-14T09:50:16;10.20;99.90
10263;DHT22;5177;50.068;8.156;2024-02-14T09:52:42;10.30;78.90
10263;DHT22;5177;50.068;8.156;2024-02-14T09:55:08;10.30;29.80
10263;DHT22;5177;50.068;8.156;2024-02-14T09:57:34;10.30;1.00
10263;DHT22;5177;50.068;8.156;2024-02-14T10:00:00;10.20;1.00
10263;DHT22;5177;50.068;8.156;2024-02-14T10:02:29;10.30;1.00
10263;DHT22;5177;50.068;8.156;2024-02-14T10:04:57;10.30;1.00
10263;DHT22;5177;50.068;8.156;2024-02-14T10:07:23;10.40;1.00
10263;DHT22;5177;50.068;8.156;2024-02-14T10:09:49;10.60;1.00
10263;DHT22;5177;50.068;8.156;2024-02-14T10:12:14;10.70;1.00
10263;DHT22;5177;50.068;8.156;2024-02-14T10:14:39;10.90;1.00
10263;DHT22;5177;50.068;8.156;2024-02-14T10:17:05;11.10;99.90
10263;DHT22;5177;50.068;8.156;2024-02-14T10:19:31;11.20;99.90
10263;DHT22;5177;50.068;8.156;2024-02-14T10:21:57;11.20;99.90
10263;DHT22;5177;50.068;8.156;2024-02-14T10:24:29;11.30;99.90
10263;DHT22;5177;50.068;8.156;2024-02-14T10:26:56;11.20;96.00
10263;DHT22;5177;50.068;8.156;2024-02-14T10:29:23;11.30;99.90
10263;DHT22;5177;50.068;8.156;2024-02-14T10:31:48;11.40;1.00
10263;DHT22;5177;50.068;8.156;2024-02-14T10:34:14;11.50;5.70
10263;DHT22;5177;50.068;8.156;2024-02-14T10:36:39;11.40;1.00
10263;DHT22;5177;50.068;8.156;2024-02-14T10:39:08;11.20;50.50
10263;DHT22;5177;50.068;8.156;2024-02-14T10:41:34;11.20;55.40
10263;DHT22;5177;50.068;8.156;2024-02-14T10:44:04;11.20;20.40
10263;DHT22;5177;50.068;8.156;2024-02-14T10:46:33;11.30;68.10
10263;DHT22;5177;50.068;8.156;2024-02-14T10:49:04;11.30;39.80
10263;DHT22;5177;50.068;8.156;2024-02-14T10:51:30;11.10;99.90
10263;DHT22;5177;50.068;8.156;2024-02-14T10:53:56;11.20;99.90
10263;DHT22;5177;50.068;8.156;2024-02-14T10:56:24;11.20;99.90
10263;DHT22;5177;50.068;8.156;2024-02-14T10:58:53;11.20;99.90
10263;DHT22;5177;50.068;8.156;2024-02-14T11:01:20;11.20;99.90
10263;DHT22;5177;50.068;8.156;2024-02-14T11:03:50;11.20;99.90
10263;DHT22;5177;50.068;8.156;2024-02-14T11:06:16;11.10;99.90
10263;DHT22;5177;50.068;8.156;2024-02-14T11:11:22;11.20;99.90
10263;DHT22;5177;50.068;8.156;2024-02-14T11:13:53;11.40;19.70
10263;DHT22;5177;50.068;8.156;2024-02-14T11:16:21;11.40;34.20
10263;DHT22;5177;50.068;8.156;2024-02-14T11:18:47;11.40;89.30
10263;DHT22;5177;50.068;8.156;2024-02-14T11:21:16;11.40;1.00
10263;DHT22;5177;50.068;8.156;2024-02-14T11:23:52;11.60;1.00
10263;DHT22;5177;50.068;8.156;2024-02-14T11:26:17;11.60;1.00
10263;DHT22;5177;50.068;8.156;2024-02-14T11:28:43;11.70;1.00
10263;DHT22;5177;50.068;8.156;2024-02-14T11:31:09;11.70;1.00
10263;DHT22;5177;50.068;8.156;2024-02-14T11:33:35;11.80;1.00
10263;DHT22;5177;50.068;8.156;2024-02-14T11:36:07;11.80;1.00
10263;DHT22;5177;50.068;8.156;2024-02-14T11:38:32;11.80;1.00
10263;DHT22;5177;50.068;8.156;2024-02-14T11:40:58;11.60;1.00
10263;DHT22;5177;50.068;8.156;2024-02-14T11:43:24;11.50;1.00
10263;DHT22;5177;50.068;8.156;2024-02-14T11:45:50;11.60;22.70
10263;DHT22;5177;50.068;8.156;2024-02-14T11:48:17;11.60;53.20
10263;DHT22;5177;50.068;8.156;2024-02-14T11:50:43;11.40;99.90
10263;DHT22;5177;50.068;8.156;2024-02-14T11:53:10;11.50;99.90
10263;DHT22;5177;50.068;8.156;2024-02-14T11:55:37;11.50;99.90
10263;DHT22;5177;50.068;8.156;2024-02-14T11:58:10;11.40;99.90
10263;DHT22;5177;50.068;8.156;2024-02-14T12:00:39;11.40;99.90
10263;DHT22;5177;50.068;8.156;2024-02-14T12:03:15;11.30;99.90
10263;DHT22;5177;50.068;8.156;2024-02-14T12:05:40;11.30;1.00
10263;DHT22;5177;50.068;8.156;2024-02-14T12:08:08;11.20;1.00
10263;DHT22;5177;50.068;8.156;2024-02-14T12:10:35;11.40;1.00
10263;DHT22;5177;50.068;8.156;2024-02-14T12:13:07;11.30;1.00
10263;DHT22;5177;50.068;8.156;2024-02-14T12:15:37;11.40;1.00
10263;DHT22;5177;50.068;8.156;2024-02-14T12:18:02;11.50;1.00
10263;DHT22;5177;50.068;8.156;2024-02-14T12:20:28;11.60;99.90
10263;DHT22;5177;50.068;8.156;2024-02-14T12:22:53;11.80;99.90
10263;DHT22;5177;50.068;8.156;2024-02-14T12:25:19;11.90;99.90
10263;DHT22;5177;50.068;8.156;2024-02-14T12:27:52;11.90;99.90
10263;DHT22;5177;50.068;8.156;2024-02-14T12:30:18;11.90;99.90
10263;DHT22;5177;50.068;8.156;2024-02-14T12:32:45;11.90;99.90
10263;DHT22;5177;50.068;8.156;2024-02-14T12:35:11;11.90;99.90
10263;DHT22;5177;50.068;8.156;2024-02-14T12:37:38;11.90;99.90
10263;DHT22;5177;50.068;8.156;2024-02-14T12:40:04;11.90;99.90
10263;DHT22;5177;50.068;8.156;2024-02-14T12:42:31;12.00;99.90
10263;DHT22;5177;50.068;8.156;2024-02-14T12:44:57;12.00;99.90
10263;DHT22;5177;50.068;8.156;2024-02-14T12:47:23;11.90;99.90
10263;DHT22;5177;50.068;8.156;2024-02-14T12:49:49;12.00;99.90
10263;DHT22;5177;50.068;8.156;2024-02-14T12:52:14;12.00;99.90
10263;DHT22;5177;50.068;8.156;2024-02-14T12:54:40;12.00;99.90
10263;DHT22;5177;50.068;8.156;2024-02-14T12:57:05;11.90;99.90
10263;DHT22;5177;50.068;8.156;2024-02-14T12:59:32;11.90;99.90
10263;DHT22;5177;50.068;8.156;2024-02-14T13:01:57;11.80;99.90
10263;DHT22;5177;50.068;8.156;2024-02-14T13:04:23;11.70;1.00
10263;DHT22;5177;50.068;8.156;2024-02-14T13:06:48;11.80;1.00
10263;DHT22;5177;50.068;8.156;2024-02-14T13:09:14;11.70;1.00
10263;DHT22;5177;50.068;8.156;2024-02-14T13:11:40;11.60;46.80
10263;DHT22;5177;50.068;8.156;2024-02-14T13:14:06;11.50;99.90
10263;DHT22;5177;50.068;8.156;2024-02-14T13:16:32;11.40;1.00
10263;DHT22;5177;50.068;8.156;2024-02-14T13:18:57;11.50;99.90
10263;DHT22;5177;50.068;8.156;2024-02-14T13:21:23;11.50;1.00
10263;DHT22;5177;50.068;8.156;2024-02-14T13:23:48;11.50;1.00
10263;DHT22;5177;50.068;8.156;2024-02-14T13:26:14;11.40;99.90
10263;DHT22;5177;50.068;8.156;2024-02-14T13:28:39;11.40;99.90
10263;DHT22;5177;50.068;8.156;2024-02-14T13:31:06;11.30;99.90
10263;DHT22;5177;50.068;8.156;2024-02-14T13:33:31;11.30;1.00
10263;DHT22;5177;50.068;8.156;2024-02-14T13:35:57;11.30;1.00
10263;DHT22;5177;50.068;8.156;2024-02-14T13:38:22;11.30;1.00
10263;DHT22;5177;50.068;8.156;2024-02-14T13:40:48;11.20;99.90
10263;DHT22;5177;50.068;8.156;2024-02-14T13:43:14;11.20;1.00
10263;DHT22;5177;50.068;8.156;2024-02-14T13:45:45;11.30;99.90
10263;DHT22;5177;50.068;8.156;2024-02-14T13:48:11;11.20;1.00
10263;DHT22;5177;50.068;8.156;2024-02-14T13:50:37;11.30;99.90
10263;DHT22;5177;50.068;8.156;2024-02-14T13:53:07;11.30;17.60
10263;DHT22;5177;50.068;8.156;2024-02-14T13:55:32;11.30;1.00
10263;DHT22;5177;50.068;8.156;2024-02-14T13:57:58;11.30;1.00
10263;DHT22;5177;50.068;8.156;2024-02-14T14:00:23;11.30;1.00
10263;DHT22;5177;50.068;8.156;2024-02-14T14:02:49;11.40;99.90
10263;DHT22;5177;50.068;8.156;2024-02-14T14:05:16;11.40;1.00
10263;DHT22;5177;50.068;8.156;2024-02-14T14:07:42;11.40;99.90
10263;DHT22;5177;50.068;8.156;2024-02-14T14:10:10;11.30;99.90
10263;DHT22;5177;50.068;8.156;2024-02-14T14:12:36;11.20;99.90
10263;DHT22;5177;50.068;8.156;2024-02-14T14:15:02;11.20;1.00
10263;DHT22;5177;50.068;8.156;2024-02-14T14:17:28;11.20;99.90
10263;DHT22;5177;50.068;8.156;2024-02-14T14:19:53;11.20;1.00
10263;DHT22;5177;50.068;8.156;2024-02-14T14:22:19;11.20;1.00
10263;DHT22;5177;50.068;8.156;2024-02-14T14:24:45;11.20;99.90
10263;DHT22;5177;50.068;8.156;2024-02-14T14:27:10;11.20;1.00
10263;DHT22;5177;50.068;8.156;2024-02-14T14:29:39;11.20;99.90
10263;DHT22;5177;50.068;8.156;2024-02-14T14:32:06;11.20;1.00
10263;DHT22;5177;50.068;8.156;2024-02-14T14:34:32;11.20;99.90
10263;DHT22;5177;50.068;8.156;2024-02-14T14:36:58;11.20;76.50
10263;DHT22;5177;50.068;8.156;2024-02-14T14:39:24;11.00;99.90
10263;DHT22;5177;50.068;8.156;2024-02-14T14:41:49;11.10;1.00
10263;DHT22;5177;50.068;8.156;2024-02-14T14:44:16;11.00;99.90
10263;DHT22;5177;50.068;8.156;2024-02-14T14:46:42;11.00;99.90
10263;DHT22;5177;50.068;8.156;2024-02-14T14:49:11;10.90;1.00
10263;DHT22;5177;50.068;8.156;2024-02-14T14:51:37;10.90;1.00
10263;DHT22;5177;50.068;8.156;2024-02-14T14:54:06;10.90;99.90
10263;DHT22;5177;50.068;8.156;2024-02-14T14:56:33;10.80;99.90
10263;DHT22;5177;50.068;8.156;2024-02-14T15:02:01;10.80;99.90
10263;DHT22;5177;50.068;8.156;2024-02-14T15:04:27;10.80;99.90
10263;DHT22;5177;50.068;8.156;2024-02-14T15:06:53;10.80;99.90
10263;DHT22;5177;50.068;8.156;2024-02-14T15:09:20;10.80;99.90
10263;DHT22;5177;50.068;8.156;2024-02-14T15:11:45;10.80;99.90
10263;DHT22;5177;50.068;8.156;2024-02-14T15:14:12;10.80;99.90
10263;DHT22;5177;50.068;8.156;2024-02-14T15:16:37;10.80;99.90
10263;DHT22;5177;50.068;8.156;2024-02-14T15:19:03;10.80;99.90
10263;DHT22;5177;50.068;8.156;2024-02-14T15:21:28;10.80;99.90
10263;DHT22;5177;50.068;8.156;2024-02-14T15:23:54;10.80;99.90
10263;DHT22;5177;50.068;8.156;2024-02-14T15:26:20;10.80;99.90
10263;DHT22;5177;50.068;8.156;2024-02-14T15:28:49;10.80;99.90
10263;DHT22;5177;50.068;8.156;2024-02-14T15:31:24;10.80;99.90
10263;DHT22;5177;50.068;8.156;2024-02-14T15:34:08;10.90;99.90
10263;DHT22;5177;50.068;8.156;2024-02-14T15:36:36;10.90;99.90
10263;DHT22;5177;50.068;8.156;2024-02-14T15:39:01;10.90;99.90
10263;DHT22;5177;50.068;8.156;2024-02-14T15:41:27;10.90;99.90
10263;DHT22;5177;50.068;8.156;2024-02-14T15:43:53;10.90;99.90
10263;DHT22;5177;50.068;8.156;2024-02-14T15:46:18;10.90;99.90
10263;DHT22;5177;50.068;8.156;2024-02-14T15:48:44;11.00;99.90
10263;DHT22;5177;50.068;8.156;2024-02-14T15:51:09;10.90;99.90
10263;DHT22;5177;50.068;8.156;2024-02-14T15:53:35;10.90;99.90
10263;DHT22;5177;50.068;8.156;2024-02-14T15:56:01;10.90;99.90
10263;DHT22;5177;50.068;8.156;2024-02-14T15:58:27;10.90;99.90
10263;DHT22;5177;50.068;8.156;2024-02-14T16:00:52;11.00;99.90
10263;DHT22;5177;50.068;8.156;2024-02-14T16:03:18;11.00;99.90
10263;DHT22;5177;50.068;8.156;2024-02-14T16:05:44;11.00;99.90
10263;DHT22;5177;50.068;8.156;2024-02-14T16:08:15;11.00;99.90
10263;DHT22;5177;50.068;8.156;2024-02-14T16:10:41;11.00;99.90
10263;DHT22;5177;50.068;8.156;2024-02-14T16:13:09;11.00;99.90